Timeline UpdatesTrip UpdatesNews PostsPvt PostsTravel TipsAdmin PostsConv PostsFollowed PostsChat RequestsBlog PostsPNR Posts

Disclaimer
Search
 
 
Thu Apr 17, 2014 12:15:42 ISTHomeTrainsΣChainsAtlasPNRForumGalleryNewsFAQTripsMembersLoginFeedback
No Recent News for this Train
Other Trains in the News **new
Latest...
.
Sat Mar 29, 2014 (04:33PM)
⇐ Return Journey: Train# 13151

13152/Jammu Tawi - Kolkata Chitpur Express

Feb 07 2014 (4:05PM)
Change Departure Station:
Change Arrival Station:
Post a Train Travel TipPost a Train Travel Tip **new
Post a Comment/Question/Picture/VideoPost a Comment/Question/Picture/Video
Pantry/Catering
✓ Pantry Car Avbl
✓ Catering Avbl
RSA - Rake Sharing
No Rake Sharing
Rake/Coach Composition
LOCO-SLR-GEN-GEN-MILITARY-B1-A1-PC-S11-S10-S9-S8-S7-S6-S5-S4-S3-S2-S1-GEN-SLR
Loco
LDH WDM 3A (JAT - MGS);;; MGS WAP 4 (MGS...
Read more...
- KOAA)
News    PNR    Forum    Time-Table    Availability    Fare Chart    Map    Arr/Dep History    Trips    Gallery    ΣChains    X/O    Timeline    
Travel Time: 22h 10m    45 halts    Distance: 983 km    Avg Speed: 44 km/hr
Type: Mail/Express
Zone: ER/Eastern
Departs @ 18:55 (Avg 15m late)
Platform# 1
SMTWTFS
Jammu Tawi/JAT 
Arrives @ 17:05 +1 night (Avg 41m late)
Platform# 3
SMTWTFS
Lucknow Charbagh/LKO 

45 halts. 162 intermediate Stations between Jammu Tawi and Lucknow Charbagh

Show ALL intermediate Stations  Show Old Time-Table

#CodeStation NameX/OArrivesAvgDepartsAvgHaltPFDay#KmSpeedElevZoneAddress
1JAT»Jammu Tawi (3)»  -18:55+15110.071337mNRJammu 180002, Jammu and Kashmir
2VJPJVijaypur Jammu (2)  19:13+2519:15+272m2121.353353mNRdistt. samba, Jammu and Kashmir
3SMBXSamba (2)  19:28+3219:30+402m1132.763365mNRDist. Samba, Jammu and Kashmir
4HRNRHira Nagar (2)  19:44+4319:46+1:012m2147.571380mNRHiranagar, Jammu and Kashmir
5CKDLChakdayala (2)X  19:49+3619:51+352m2151.023396mNRdistt. kathua, Jammu and Kashmir
6KTHUKathua (2)  20:57+3520:59+362m2176.348396mNRdistt. kathua, Jammu and Kashmir
7SJNPSujanpur (3)XO  21:18+3721:20+432m2191.412335mNRSujanpur, Punjab
8PTKCPathankot Cantt (3)  22:00+2722:05+285m1199.457328mNRPathankot By Pass Ph:0186-2251594, Punjab
9MEXMukerian (3)  22:47+2022:49+212m11139.356257mNRMukerian distt. hosiharpur, Punjab
10DZADasuya (2)  23:05+2123:07+222m11154.371251mNRDasuya distt. hoshiarpur, Punjab
11TDOTanda Urmar (3)  23:20+2423:22+262m21169.765239mNRUrmar Tanda, Punjab
12JRCJalandhar Cantt. Junction (3)XO  00:01+2900:05+394m32211.943239mNRNear Rama Mandi, Punjab
13PGWPhagwara Junction (3)X  00:28+3300:30+362m12228.229245mNRPhagwara, Punjab
14LDHLudhiana Junction (7)X  01:45+1201:55+1910m12263.947246mNRLudhiana 141001, Punjab
15KNNKhanna (3)X  02:50+1102:52+122m22306.767269mNRNH 1, Punjab
16SIRSirhind Junction (3)X  03:08+1303:10+132m22324.688271mNRSirhind, Punjab
17RPJRajpura Junction (3)X  03:27+1803:29+232m22349.447272mNRNH-1, Punjab
18UBCAmbala City (3)XO  03:55+1603:57+162m12369.920273mNRNH-1, Haryana
19UMBAmbala Cantt. Junction (7)XO  04:20+1304:30+1110m12377.579278mNRAmbala 133001, Haryana
20JUDWJagadhri Workshop (2)  05:05+1505:07+152m12423.527280mNRRailway Workshop Road, Haryana
21JUDYamunanagar-Jagadhri (3)X  05:18+1105:20+132m22428.536275mNRYamunanagar, Haryana
22SRESaharanpur Junction (6)X  06:10+206:20+310m32458.669276mNRSaharanpur, Uttar Pradesh
23RKRoorkee (3)  06:50+1806:52+202m12493.446264mNRRoorkee - 247667, Uttarakhand
24LRJLaksar Junction (4)  07:15+1907:20+195m22511.198238mNRLaksar, Uttarakhand
25RSIRaisi  07:27+2207:29+222m--2522.644231mNRLaksar, Uttarakhand
26CNKChandok (2)  07:46+2207:48+242m22535.292257mNRChandok, Uttar Pradesh
27MZMMuzzampur Narayan (3)  07:56+2507:58+252m12547.433258mNRJunction Point - NBD/LRJ/BJO, Uttar Pradesh
28NBDNajibabad Junction (3)  08:18+2108:23+225m12558.479269mNRNajibabad, Uttar Pradesh
29NGGNagina (3)  08:40+3008:42+312m--2580.967247mNRNagina, Uttar Pradesh
30DPRDhampurX  08:57+3408:59+352m--2597.763236mNRDhampur, Uttar Pradesh
31SEOSeoharaXO  09:12+3609:14+372m--2611.471224mNRSeohara, Uttar Pradesh
32KNTKanthXO  09:28+3909:30+392m--2628.027221mNRKanth, Uttar Pradesh
33MBMoradabad Junction (7)X  10:35+1310:45+1710m--2657.455201mNRMoradabad, Uttar Pradesh
34RMURampur Junction (3)  11:15+2111:17+252m--2684.756190mNRRampur, Uttar Pradesh
35MILMilakX  11:42+2311:44+252m--2707.877180mNRMilak, Uttar Pradesh
36CBJClutterbuckGanj12:09+3012:10+291m--2739.894172mNRBareilly, Uttar Pradesh
37BEBareilly Junction (4)  12:15+5012:20+515m--2747.746174mNRBareilly, Uttar Pradesh
38PMRPitambarpur  12:46+5012:48+502m--2767.663171mNRPitambarpur, Uttar Pradesh
39TLHTilharX  13:19+5013:21+512m--2800.045163mNRTilhar, Uttar Pradesh
40SPNShahjahanpur Junction (3)X  13:45+4513:50+465m--2818.255156mNRShahjahanpur, Uttar Pradesh
41ROZARoza Junction (4)  13:58+4814:00+482m--2825.578156mNRShahjahanpur, Uttar Pradesh
42AJIAnjhi Shahabad  14:18+5514:20+572m--2848.969148mNRAnjhi Shahabad, Uttar Pradesh
43HRIHardoi (5)  14:48+5714:50+582m32881.164146mNRHardoi, Uttar Pradesh
44BLMBalamu Junction (4)X  15:21+5315:23+522m--2914.161139mNRBalamau, Uttar Pradesh
45SANSandila (3)X  15:43+5015:45+512m--2934.444132mNRSandila, Uttar Pradesh
46MLDMalihabadX  16:18+3916:20+402m--2958.732130mNRMalihabad, Uttar Pradesh
47LKO•Lucknow Charbagh (9)•X  17:05+4117:20+4315m32982.939123mNRCharbagh, Uttar Pradesh
48BBKBarabanki Junction (4)  18:04+4418:06+462m--21011.545122mNRPin-225001, Uttar Pradesh
49SGJSafdarGanjXO  18:30+4718:32+472m--21029.785116mNRFaizabad Rd, Uttar Pradesh
50DYDDaryabad  18:46+5318:48+532m--21049.577116mNRFaizabad Rd, Uttar Pradesh
51RDLRudauli (2)  19:06+1:0219:08+1:032m--21072.637112mNRRudauli, Uttar Pradesh
52SLWSohwalX  19:45+5119:47+542m--21095.528107mNRFaizabad Rd, Uttar Pradesh
53FDFaizabad Junction (5)X  20:20+5520:25+1:015m--21110.814104mNRFaizabad, Uttar Pradesh
54ACNDAcharya Narendra Dev NagarX  20:34+1:0320:36+1:032m--21112.918104mNRFaizabad, Uttar Pradesh
55AYAyodhya Junction (3)  20:51+5920:53+1:002m221117.47098mNRAyodhya, Uttar Pradesh
56GGJGoshainGanj (3)X  21:20+1:0621:22+1:062m--21149.24998mNRGoshainganj, Uttar Pradesh
57ABPAkbarpur (2)  21:49+1:0221:51+1:032m121171.47692mNRAkbarpur, Uttar Pradesh
58MLPRMalipur (2)  22:06+1:0922:08+1:092m--21190.56292mNRMalipur, Uttar Pradesh
59SHGShahganj Junction (4)  22:32+1:1322:36+1:144m--21215.56490mNRShahganj, Uttar Pradesh
60JNUJaunpur Junction (5)  23:07+1:1523:09+1:162m--21248.82683mNRJaunpur, Uttar Pradesh
61BSBVaranasi Junction (9)X  01:20+2001:30+2110m--31306.41582mNRVaranasi, Uttar Pradesh
62KEIKashi (3)  01:51+1601:53+182m--31311.81485mNRVaranasi, Uttar Pradesh
63MGSMughal Sarai Junction (8)XO  02:40+803:00+1320m131322.75883mECRMughalsarai 232101, Uttar Pradesh
64CDMRChandauli MajhwarXO  03:18+2103:20+212m--31340.27280mECRNational Highway 2, Uttar Pradesh
65SYJSaidraja  03:27+2303:29+242m--31348.58280mECRSaiyedraja, Uttar Pradesh
66BBUBhabua Road (4)  03:50+2403:52+242m--31377.37980mECR06187-222222, Bihar
67KTQKudra (2)  04:09+2504:11+262m--31399.67692mECRKudra, Bihar
68SSMSasaram Junction (4)X  04:31+2804:33+282m--31424.959111mECR06184-222051, Bihar
69DOSDehri On Sone (6)  04:51+2704:53+272m--31442.557114mECRRohtas(06184-253154), Bihar
70SEBSon Nagar Junction (4)X  04:59+3005:01+302m--31448.365110mECRBarun, Bihar
71AUBRAnugraha Narayan Road (4)X  05:11+3005:13+302m--31459.175104mECR06186-285271, Bihar
72JHNJakhim  05:29+3105:31+322m--31479.25493mECRbel Rd, Bihar
73RFJRafiGanj (4)X  05:43+3005:45+312m--31490.081102mECRRafiganj, Bihar
74GRRUGuraruX  05:57+3205:59+332m--31506.127114mECRGuraru, Bihar
75GAYAGaya Junction (9)O  06:46+1406:51+165m231527.663117mECR0631-2220283, Bihar
76TKNTankuppa  07:10+2107:12+212m--31547.767127mECRState Highway 70, Bihar
77PRPPaharpur  07:23+2107:25+222m--31559.987150mECRGaya, Bihar
78GAPGurpa  07:33+2407:35+242m--31571.658192mECRLodhwe, Bihar
79GJDGujhandi  07:58+2608:00+282m--31594.060386mECRNational Highway 31, Jharkhand
80KQRKoderma Junction (7)X  08:10+2708:12+282m--31604.075399mECR06534-222410 Koderma, Jharkhand
81PSBParsabad (3)  08:33+2708:35+302m--31630.377346mECRNational Highway 2, Jharkhand
82HZDHazaribagh Road (3)  08:52+3008:54+302m--31652.381330mECRHazaribagh, Jharkhand
83PNMEParasnath (5)X  09:14+3009:16+332m--31679.354282mECRGiridih 06532-233419, Jharkhand
84GMONetaji SC Bose Gomoh Junction (6)  09:36+2909:46+2910m--31697.446239mECRGomoh, Jharkhand
85DHNDhanbad Junction (8)X  10:25+1810:32+197m231727.285235mECR2319801. Div. HQ ECR, Jharkhand
86KMMEKumardubi (2)  10:59+3511:01+352m--31765.750135mERDhanbad - 828203(06540-222077), Jharkhand
87BRRBarakar (2)X  11:04+3611:06+362m--31768.239129mERDist. Bardhaman, West Bengal
88ULTKulti (3)  11:11+3711:13+372m--31771.440148mERdist - bardhaman, West Bengal
89ASNAsansol Junction (7)  11:34+3711:49+3315m--31785.472113mERDist - bardhaman, West Bengal
90RNGRaniGanj (4)  12:04+3612:06+362m--31803.54092mERRaniganj, West Bengal
91UDLAndal Junction (6)O  12:17+3312:19+322m--31810.84386mERAndal, West Bengal
92DGRDurgapur (5)  12:43+2512:45+252m431827.89471mERDurgapur, West Bengal
93PANPanagarh (4)X  12:55+2912:57+282m--31843.47070mERKaksa, West Bengal
94BWNBarddhaman Junction (8)X  13:38+3213:43+335m--31891.47334mERDist - Barddhaman, West Bengal
95KQUKamarkundu (5)  14:34+2514:36+252m--31953.05813mERDist - Hooghly, West Bengal
96DAKEDakhineswar (2)  15:04+2015:06+202m231980.01410mERDist - 24 paraganas ( North ), West Bengal
97KOAAKolkata Chitpur (5)  15:50+16-331989.9-6mERKolkata, West Bengal
Scroll to Top
Scroll to Bottom